Gerry, New York
Current Conditions -  °F | °C
As of 6:55 PM on Sunday 23 Nov 2014 (Local Time) from KJHW Reporting Station
Clear Clear  
Wind Chill: 45°   Ceiling: Unl
Heat Index: 48°   Visibility: 10mi
Dew Point: 36°   Wind: 8mph
Humidity: 62%   Direction: 150°SSE
Pressure: 29.81"   Gusts: NA
Location:  42.19°N, 79.25°W
Report Text: KJHW 232355Z AUTO 15007KT 10SM CLR 09/02 A2981 RMK AO1 10100 20060 401000030 57034
Loading
Personal Weather Stations






























Interactive Weather Map New forecast layout! Learn more

10-Day Weather Forecast

Advertisements
Track Severe Weather on mobile